Ana Sayfa
METAR-TAF:

METAR-TAF

Havaalanları :

Dedeağaç, Yunanistan

Enlem: 40-51N, Boylam: 025-55E, yükseklik: 7 m

Güncel hava durumu gözlemi

Rapor saat 05:20 UTC de 34 dakika önce yapıldı.
Rüzgar değişken yönden 2 kt
Sıcaklık 22°C
Nem 69%
Basınç 1010 hPa
Görüş mesafesi 10 km veya daha fazla
1500 m altında bulut yok ve kümülonimbus yok

METAR: LGAL 170520Z VRB02KT CAVOK 22/16 Q1010

Saat: 08:54 (05:54 UTC)

Tahmin

Rapor saat 05:00 UTC de 54 dakika önce yapıldı.
Ayın 17'si saat 06 UTC'den ayın 17'si saat 15 UTC'ye kadar geçerli Tahmin
Rüzgar kuzeydoğudan 12 kt
Görüş mesafesi 10 km veya daha fazla
2500 ft yükseklikte az bulutlu

TAF: LGAL 170500Z 1706/1715 04012KT 9999 FEW025

4.000'den fazla havaalanı için hava durumu gözlemleri ve tahminleri (METAR ve TAF raporları).

Kullanılabilir istasyonlar harita üzerinde sarı ve kırmızı noktalarla gösterilir.

İstasyonun adını görmek için fareyi noktanın üzerinde gezdirin.

Sonrasında hava gözlem ve tahminlerini görmek için tıklayın.

Haritayı değiştirmek için: yaklaştırmak için siyah artı işaretli yeşil düğmeye ve uzaklaştırmak için de eksi işaretli düğmeye hızla tıklayın; bitişik haritalar için yeşil okları kullanın.


METAR-TAF: